Castleton, Indiana
Current Conditions -  °F | °C
As of 9:15 PM on Saturday 22 Nov 2014 (Local Time) from KMQJ Reporting Station
Overcast Overcast  
Wind Chill: 52°   Ceiling: 4000
Heat Index: 52°   Visibility: 10mi
Dew Point: 30°   Wind: 9mph
Humidity: 44%   Direction: 180°S
Pressure: 30.01"   Gusts: NA
Location:  39.9049°N, 86.0135°W
Report Text: KMQJ 230215Z AUTO 18008KT 10SM OVC040 11/M01 A3001 RMK AO1
Loading
Personal Weather Stations






























Interactive Weather Map New forecast layout! Learn more

10-Day Weather Forecast

Advertisements
Track Severe Weather on mobile